sensor_id;sensor_type;location;lat;lon;timestamp;P1;durP1;ratioP1;P2;durP2;ratioP2
55362;SDS011;41244;49.242;9.060;2023-08-30T00:00:19;6.00;;;5.53;;
55362;SDS011;41244;49.242;9.060;2023-08-30T00:02:48;7.07;;;6.47;;
55362;SDS011;41244;49.242;9.060;2023-08-30T00:05:13;7.80;;;7.10;;
55362;SDS011;41244;49.242;9.060;2023-08-30T00:07:39;7.40;;;6.70;;
55362;SDS011;41244;49.242;9.060;2023-08-30T00:10:06;7.07;;;6.47;;
55362;SDS011;41244;49.242;9.060;2023-08-30T00:12:33;7.00;;;6.40;;
55362;SDS011;41244;49.242;9.060;2023-08-30T00:14:59;11.50;;;6.97;;
55362;SDS011;41244;49.242;9.060;2023-08-30T00:17:25;7.40;;;6.70;;
55362;SDS011;41244;49.242;9.060;2023-08-30T00:19:50;6.90;;;6.30;;
55362;SDS011;41244;49.242;9.060;2023-08-30T00:22:18;7.80;;;6.93;;
55362;SDS011;41244;49.242;9.060;2023-08-30T00:24:44;8.00;;;6.93;;
55362;SDS011;41244;49.242;9.060;2023-08-30T00:27:10;7.13;;;6.55;;
55362;SDS011;41244;49.242;9.060;2023-08-30T00:29:37;9.65;;;6.80;;
55362;SDS011;41244;49.242;9.060;2023-08-30T00:32:03;7.18;;;6.47;;
55362;SDS011;41244;49.242;9.060;2023-08-30T00:34:29;8.13;;;6.90;;
55362;SDS011;41244;49.242;9.060;2023-08-30T00:36:54;7.55;;;6.78;;
55362;SDS011;41244;49.242;9.060;2023-08-30T00:39:20;7.00;;;6.30;;
55362;SDS011;41244;49.242;9.060;2023-08-30T00:41:46;8.63;;;6.68;;
55362;SDS011;41244;49.242;9.060;2023-08-30T00:44:12;7.70;;;7.07;;
55362;SDS011;41244;49.242;9.060;2023-08-30T00:46:38;7.38;;;6.57;;
55362;SDS011;41244;49.242;9.060;2023-08-30T00:49:04;7.85;;;6.47;;
55362;SDS011;41244;49.242;9.060;2023-08-30T00:51:31;8.05;;;6.50;;
55362;SDS011;41244;49.242;9.060;2023-08-30T00:53:58;9.35;;;6.15;;
55362;SDS011;41244;49.242;9.060;2023-08-30T00:56:25;9.95;;;6.75;;
55362;SDS011;41244;49.242;9.060;2023-08-30T00:58:53;7.60;;;6.53;;
55362;SDS011;41244;49.242;9.060;2023-08-30T01:01:18;7.45;;;6.70;;
55362;SDS011;41244;49.242;9.060;2023-08-30T01:03:45;7.20;;;6.40;;
55362;SDS011;41244;49.242;9.060;2023-08-30T01:06:11;8.65;;;7.85;;
55362;SDS011;41244;49.242;9.060;2023-08-30T01:08:38;7.72;;;6.72;;
55362;SDS011;41244;49.242;9.060;2023-08-30T01:13:56;8.57;;;7.80;;
55362;SDS011;41244;49.242;9.060;2023-08-30T01:16:30;10.65;;;8.65;;
55362;SDS011;41244;49.242;9.060;2023-08-30T01:18:56;9.50;;;8.02;;
55362;SDS011;41244;49.242;9.060;2023-08-30T01:21:41;7.60;;;6.93;;
55362;SDS011;41244;49.242;9.060;2023-08-30T01:24:39;8.93;;;8.02;;
55362;SDS011;41244;49.242;9.060;2023-08-30T01:27:24;8.18;;;7.38;;
55362;SDS011;41244;49.242;9.060;2023-08-30T01:29:51;7.88;;;7.20;;
55362;SDS011;41244;49.242;9.060;2023-08-30T01:32:19;8.90;;;7.72;;
55362;SDS011;41244;49.242;9.060;2023-08-30T01:34:47;8.75;;;7.95;;
55362;SDS011;41244;49.242;9.060;2023-08-30T01:37:14;8.00;;;7.00;;
55362;SDS011;41244;49.242;9.060;2023-08-30T01:39:40;10.10;;;7.47;;
55362;SDS011;41244;49.242;9.060;2023-08-30T01:42:07;7.40;;;6.80;;
55362;SDS011;41244;49.242;9.060;2023-08-30T01:44:34;7.90;;;6.63;;
55362;SDS011;41244;49.242;9.060;2023-08-30T01:47:00;8.57;;;7.28;;
55362;SDS011;41244;49.242;9.060;2023-08-30T01:49:26;7.80;;;6.80;;
55362;SDS011;41244;49.242;9.060;2023-08-30T01:51:57;6.70;;;5.93;;
55362;SDS011;41244;49.242;9.060;2023-08-30T01:54:23;7.85;;;7.00;;
55362;SDS011;41244;49.242;9.060;2023-08-30T01:56:49;8.13;;;7.32;;
55362;SDS011;41244;49.242;9.060;2023-08-30T01:59:15;7.70;;;6.95;;
55362;SDS011;41244;49.242;9.060;2023-08-30T02:01:40;7.57;;;6.88;;
55362;SDS011;41244;49.242;9.060;2023-08-30T02:04:06;10.23;;;7.25;;
55362;SDS011;41244;49.242;9.060;2023-08-30T02:09:26;7.75;;;7.00;;
55362;SDS011;41244;49.242;9.060;2023-08-30T02:12:04;9.82;;;8.77;;
55362;SDS011;41244;49.242;9.060;2023-08-30T02:14:35;9.25;;;7.75;;
55362;SDS011;41244;49.242;9.060;2023-08-30T02:17:02;8.60;;;7.90;;
55362;SDS011;41244;49.242;9.060;2023-08-30T02:19:28;9.32;;;8.43;;
55362;SDS011;41244;49.242;9.060;2023-08-30T02:21:54;8.88;;;7.97;;
55362;SDS011;41244;49.242;9.060;2023-08-30T02:24:20;9.90;;;9.10;;
55362;SDS011;41244;49.242;9.060;2023-08-30T02:26:46;8.98;;;8.18;;
55362;SDS011;41244;49.242;9.060;2023-08-30T02:29:12;9.90;;;8.77;;
55362;SDS011;41244;49.242;9.060;2023-08-30T02:31:38;8.77;;;7.97;;
55362;SDS011;41244;49.242;9.060;2023-08-30T02:34:04;9.18;;;8.13;;
55362;SDS011;41244;49.242;9.060;2023-08-30T02:36:29;8.05;;;7.25;;
55362;SDS011;41244;49.242;9.060;2023-08-30T02:38:55;9.10;;;8.30;;
55362;SDS011;41244;49.242;9.060;2023-08-30T02:41:21;10.07;;;9.15;;
55362;SDS011;41244;49.242;9.060;2023-08-30T02:43:46;9.02;;;8.20;;
55362;SDS011;41244;49.242;9.060;2023-08-30T02:46:12;9.32;;;8.52;;
55362;SDS011;41244;49.242;9.060;2023-08-30T02:48:38;10.20;;;8.32;;
55362;SDS011;41244;49.242;9.060;2023-08-30T02:51:04;9.80;;;8.90;;
55362;SDS011;41244;49.242;9.060;2023-08-30T02:53:29;9.93;;;8.90;;
55362;SDS011;41244;49.242;9.060;2023-08-30T02:55:55;9.90;;;8.98;;
55362;SDS011;41244;49.242;9.060;2023-08-30T02:58:21;9.82;;;8.82;;
55362;SDS011;41244;49.242;9.060;2023-08-30T03:00:47;10.25;;;9.25;;
55362;SDS011;41244;49.242;9.060;2023-08-30T03:03:13;9.40;;;8.60;;
55362;SDS011;41244;49.242;9.060;2023-08-30T03:05:39;8.65;;;7.95;;
55362;SDS011;41244;49.242;9.060;2023-08-30T03:08:05;10.60;;;9.60;;
55362;SDS011;41244;49.242;9.060;2023-08-30T03:10:31;9.90;;;9.00;;
55362;SDS011;41244;49.242;9.060;2023-08-30T03:12:57;9.50;;;8.70;;
55362;SDS011;41244;49.242;9.060;2023-08-30T03:15:23;11.88;;;9.85;;
55362;SDS011;41244;49.242;9.060;2023-08-30T03:17:48;10.27;;;9.30;;
55362;SDS011;41244;49.242;9.060;2023-08-30T03:20:14;10.95;;;9.95;;
55362;SDS011;41244;49.242;9.060;2023-08-30T03:22:40;10.48;;;9.45;;
55362;SDS011;41244;49.242;9.060;2023-08-30T03:25:06;11.05;;;9.90;;
55362;SDS011;41244;49.242;9.060;2023-08-30T03:27:34;11.43;;;10.32;;
55362;SDS011;41244;49.242;9.060;2023-08-30T03:30:00;11.60;;;10.48;;
55362;SDS011;41244;49.242;9.060;2023-08-30T03:32:27;11.65;;;10.55;;
55362;SDS011;41244;49.242;9.060;2023-08-30T03:34:53;12.68;;;11.38;;
55362;SDS011;41244;49.242;9.060;2023-08-30T03:37:19;11.48;;;10.48;;
55362;SDS011;41244;49.242;9.060;2023-08-30T03:39:44;12.52;;;11.43;;
55362;SDS011;41244;49.242;9.060;2023-08-30T03:42:10;12.98;;;11.88;;
55362;SDS011;41244;49.242;9.060;2023-08-30T03:44:37;13.20;;;12.00;;
55362;SDS011;41244;49.242;9.060;2023-08-30T03:47:04;12.73;;;10.40;;
55362;SDS011;41244;49.242;9.060;2023-08-30T03:49:29;12.50;;;11.27;;
55362;SDS011;41244;49.242;9.060;2023-08-30T03:51:55;12.27;;;11.00;;
55362;SDS011;41244;49.242;9.060;2023-08-30T03:54:21;12.02;;;10.82;;
55362;SDS011;41244;49.242;9.060;2023-08-30T03:56:47;12.52;;;11.35;;
55362;SDS011;41244;49.242;9.060;2023-08-30T03:59:12;12.00;;;10.90;;
55362;SDS011;41244;49.242;9.060;2023-08-30T04:01:38;13.18;;;11.85;;
55362;SDS011;41244;49.242;9.060;2023-08-30T04:04:04;12.10;;;11.10;;
55362;SDS011;41244;49.242;9.060;2023-08-30T04:06:30;12.35;;;11.18;;
55362;SDS011;41244;49.242;9.060;2023-08-30T04:08:56;12.85;;;11.68;;
55362;SDS011;41244;49.242;9.060;2023-08-30T04:11:22;13.75;;;12.38;;
55362;SDS011;41244;49.242;9.060;2023-08-30T04:13:48;13.00;;;11.70;;
55362;SDS011;41244;49.242;9.060;2023-08-30T04:16:14;14.35;;;12.85;;
55362;SDS011;41244;49.242;9.060;2023-08-30T04:18:40;15.10;;;11.95;;
55362;SDS011;41244;49.242;9.060;2023-08-30T04:21:06;13.65;;;12.30;;
55362;SDS011;41244;49.242;9.060;2023-08-30T04:23:33;16.10;;;12.77;;
55362;SDS011;41244;49.242;9.060;2023-08-30T04:25:59;15.70;;;14.00;;
55362;SDS011;41244;49.242;9.060;2023-08-30T04:28:25;12.10;;;11.10;;
55362;SDS011;41244;49.242;9.060;2023-08-30T04:30:55;14.07;;;12.88;;
55362;SDS011;41244;49.242;9.060;2023-08-30T04:33:21;17.10;;;15.50;;
55362;SDS011;41244;49.242;9.060;2023-08-30T04:35:51;24.20;;;21.27;;
55362;SDS011;41244;49.242;9.060;2023-08-30T04:38:18;18.00;;;15.77;;
55362;SDS011;41244;49.242;9.060;2023-08-30T04:40:45;15.32;;;13.93;;
55362;SDS011;41244;49.242;9.060;2023-08-30T04:43:11;16.50;;;14.07;;
55362;SDS011;41244;49.242;9.060;2023-08-30T04:45:37;16.67;;;15.07;;
55362;SDS011;41244;49.242;9.060;2023-08-30T04:48:03;14.73;;;13.32;;
55362;SDS011;41244;49.242;9.060;2023-08-30T04:50:30;16.00;;;14.32;;
55362;SDS011;41244;49.242;9.060;2023-08-30T04:52:56;13.77;;;12.38;;
55362;SDS011;41244;49.242;9.060;2023-08-30T04:55:25;15.32;;;13.73;;
55362;SDS011;41244;49.242;9.060;2023-08-30T04:57:53;14.30;;;13.00;;
55362;SDS011;41244;49.242;9.060;2023-08-30T05:00:19;15.77;;;13.32;;
55362;SDS011;41244;49.242;9.060;2023-08-30T05:02:45;14.63;;;13.43;;
55362;SDS011;41244;49.242;9.060;2023-08-30T05:05:11;14.95;;;13.65;;
55362;SDS011;41244;49.242;9.060;2023-08-30T05:07:38;15.48;;;13.60;;
55362;SDS011;41244;49.242;9.060;2023-08-30T05:10:04;14.57;;;13.18;;
55362;SDS011;41244;49.242;9.060;2023-08-30T05:12:31;15.48;;;13.15;;
55362;SDS011;41244;49.242;9.060;2023-08-30T05:14:59;15.73;;;14.25;;
55362;SDS011;41244;49.242;9.060;2023-08-30T05:17:25;16.50;;;14.82;;
55362;SDS011;41244;49.242;9.060;2023-08-30T05:19:53;15.88;;;14.23;;
55362;SDS011;41244;49.242;9.060;2023-08-30T05:22:19;15.07;;;13.57;;
55362;SDS011;41244;49.242;9.060;2023-08-30T05:24:44;15.52;;;13.93;;
55362;SDS011;41244;49.242;9.060;2023-08-30T05:27:10;15.80;;;13.70;;
55362;SDS011;41244;49.242;9.060;2023-08-30T05:29:37;16.50;;;13.82;;
55362;SDS011;41244;49.242;9.060;2023-08-30T05:32:04;16.17;;;14.55;;
55362;SDS011;41244;49.242;9.060;2023-08-30T05:34:30;16.02;;;14.65;;
55362;SDS011;41244;49.242;9.060;2023-08-30T05:36:56;16.45;;;14.95;;
55362;SDS011;41244;49.242;9.060;2023-08-30T05:39:21;16.38;;;14.85;;
55362;SDS011;41244;49.242;9.060;2023-08-30T05:41:48;16.25;;;14.85;;
55362;SDS011;41244;49.242;9.060;2023-08-30T05:44:13;17.15;;;15.35;;
55362;SDS011;41244;49.242;9.060;2023-08-30T05:46:39;16.05;;;14.50;;
55362;SDS011;41244;49.242;9.060;2023-08-30T05:49:05;16.15;;;14.45;;
55362;SDS011;41244;49.242;9.060;2023-08-30T05:51:31;16.52;;;14.98;;
55362;SDS011;41244;49.242;9.060;2023-08-30T05:53:56;16.70;;;15.20;;
55362;SDS011;41244;49.242;9.060;2023-08-30T05:56:22;15.63;;;14.05;;
55362;SDS011;41244;49.242;9.060;2023-08-30T05:58:48;16.80;;;14.10;;
55362;SDS011;41244;49.242;9.060;2023-08-30T06:01:17;17.15;;;15.25;;
55362;SDS011;41244;49.242;9.060;2023-08-30T06:03:44;16.70;;;15.10;;
55362;SDS011;41244;49.242;9.060;2023-08-30T06:06:10;16.27;;;14.68;;
55362;SDS011;41244;49.242;9.060;2023-08-30T06:08:36;16.23;;;14.45;;
55362;SDS011;41244;49.242;9.060;2023-08-30T06:11:02;16.15;;;14.60;;
55362;SDS011;41244;49.242;9.060;2023-08-30T06:13:28;15.90;;;14.32;;
55362;SDS011;41244;49.242;9.060;2023-08-30T06:15:53;16.20;;;14.23;;
55362;SDS011;41244;49.242;9.060;2023-08-30T06:18:19;15.73;;;14.30;;
55362;SDS011;41244;49.242;9.060;2023-08-30T06:20:45;17.70;;;15.80;;
55362;SDS011;41244;49.242;9.060;2023-08-30T06:23:12;14.48;;;13.07;;
55362;SDS011;41244;49.242;9.060;2023-08-30T06:25:39;13.68;;;12.27;;
55362;SDS011;41244;49.242;9.060;2023-08-30T06:28:05;12.07;;;10.93;;
55362;SDS011;41244;49.242;9.060;2023-08-30T06:30:31;13.25;;;11.85;;
55362;SDS011;41244;49.242;9.060;2023-08-30T06:32:57;11.93;;;10.73;;
55362;SDS011;41244;49.242;9.060;2023-08-30T06:35:23;11.35;;;10.35;;
55362;SDS011;41244;49.242;9.060;2023-08-30T06:37:49;11.60;;;10.55;;
55362;SDS011;41244;49.242;9.060;2023-08-30T06:40:15;12.10;;;10.90;;
55362;SDS011;41244;49.242;9.060;2023-08-30T06:42:41;12.30;;;11.02;;
55362;SDS011;41244;49.242;9.060;2023-08-30T06:45:06;12.52;;;11.10;;
55362;SDS011;41244;49.242;9.060;2023-08-30T06:47:33;12.45;;;11.45;;
55362;SDS011;41244;49.242;9.060;2023-08-30T06:49:59;12.65;;;11.45;;
55362;SDS011;41244;49.242;9.060;2023-08-30T06:52:25;13.80;;;11.45;;
55362;SDS011;41244;49.242;9.060;2023-08-30T06:54:51;12.25;;;10.93;;
55362;SDS011;41244;49.242;9.060;2023-08-30T06:57:17;12.95;;;10.88;;
55362;SDS011;41244;49.242;9.060;2023-08-30T06:59:43;11.27;;;10.07;;
55362;SDS011;41244;49.242;9.060;2023-08-30T07:02:09;12.88;;;10.00;;
55362;SDS011;41244;49.242;9.060;2023-08-30T07:04:35;10.93;;;9.77;;
55362;SDS011;41244;49.242;9.060;2023-08-30T07:07:00;10.52;;;9.63;;
55362;SDS011;41244;49.242;9.060;2023-08-30T07:09:26;10.50;;;9.40;;
55362;SDS011;41244;49.242;9.060;2023-08-30T07:11:56;9.60;;;8.70;;
55362;SDS011;41244;49.242;9.060;2023-08-30T07:14:23;12.07;;;8.27;;
55362;SDS011;41244;49.242;9.060;2023-08-30T07:16:49;8.68;;;7.95;;
55362;SDS011;41244;49.242;9.060;2023-08-30T07:19:15;8.13;;;7.10;;
55362;SDS011;41244;49.242;9.060;2023-08-30T07:21:42;7.15;;;6.38;;
55362;SDS011;41244;49.242;9.060;2023-08-30T07:24:08;6.80;;;6.10;;
55362;SDS011;41244;49.242;9.060;2023-08-30T07:26:34;8.82;;;6.78;;
55362;SDS011;41244;49.242;9.060;2023-08-30T07:29:01;7.43;;;5.65;;
55362;SDS011;41244;49.242;9.060;2023-08-30T07:31:29;7.15;;;6.45;;
55362;SDS011;41244;49.242;9.060;2023-08-30T07:33:54;7.63;;;5.93;;
55362;SDS011;41244;49.242;9.060;2023-08-30T07:36:21;6.72;;;6.10;;
55362;SDS011;41244;49.242;9.060;2023-08-30T07:38:47;6.43;;;5.78;;
55362;SDS011;41244;49.242;9.060;2023-08-30T07:41:13;7.25;;;5.60;;
55362;SDS011;41244;49.242;9.060;2023-08-30T07:43:38;8.00;;;5.97;;
55362;SDS011;41244;49.242;9.060;2023-08-30T07:46:04;6.70;;;5.50;;
55362;SDS011;41244;49.242;9.060;2023-08-30T07:48:30;8.18;;;5.68;;
55362;SDS011;41244;49.242;9.060;2023-08-30T07:50:56;7.55;;;5.68;;
55362;SDS011;41244;49.242;9.060;2023-08-30T07:53:21;8.20;;;5.82;;
55362;SDS011;41244;49.242;9.060;2023-08-30T07:55:48;5.75;;;5.25;;
55362;SDS011;41244;49.242;9.060;2023-08-30T07:58:15;6.18;;;4.95;;
55362;SDS011;41244;49.242;9.060;2023-08-30T08:00:42;6.30;;;5.50;;
55362;SDS011;41244;49.242;9.060;2023-08-30T08:03:08;6.03;;;5.07;;
55362;SDS011;41244;49.242;9.060;2023-08-30T08:05:35;5.60;;;5.10;;
55362;SDS011;41244;49.242;9.060;2023-08-30T08:08:01;6.00;;;5.50;;
55362;SDS011;41244;49.242;9.060;2023-08-30T08:10:32;6.97;;;6.38;;
55362;SDS011;41244;49.242;9.060;2023-08-30T08:12:58;5.20;;;4.70;;
55362;SDS011;41244;49.242;9.060;2023-08-30T08:15:25;5.40;;;4.90;;
55362;SDS011;41244;49.242;9.060;2023-08-30T08:17:50;5.53;;;5.03;;
55362;SDS011;41244;49.242;9.060;2023-08-30T08:20:16;5.03;;;4.63;;
55362;SDS011;41244;49.242;9.060;2023-08-30T08:22:42;7.57;;;4.93;;
55362;SDS011;41244;49.242;9.060;2023-08-30T08:25:08;7.25;;;5.15;;
55362;SDS011;41244;49.242;9.060;2023-08-30T08:27:35;5.22;;;4.72;;
55362;SDS011;41244;49.242;9.060;2023-08-30T08:30:02;5.55;;;5.10;;
55362;SDS011;41244;49.242;9.060;2023-08-30T08:32:29;6.07;;;5.13;;
55362;SDS011;41244;49.242;9.060;2023-08-30T08:34:55;5.40;;;4.85;;
55362;SDS011;41244;49.242;9.060;2023-08-30T08:37:22;5.82;;;4.78;;
55362;SDS011;41244;49.242;9.060;2023-08-30T08:39:48;6.10;;;5.00;;
55362;SDS011;41244;49.242;9.060;2023-08-30T08:42:18;5.28;;;4.78;;
55362;SDS011;41244;49.242;9.060;2023-08-30T08:44:47;6.97;;;4.97;;
55362;SDS011;41244;49.242;9.060;2023-08-30T08:47:19;4.72;;;4.32;;
55362;SDS011;41244;49.242;9.060;2023-08-30T08:49:49;5.10;;;4.70;;
55362;SDS011;41244;49.242;9.060;2023-08-30T08:52:16;5.82;;;5.10;;
55362;SDS011;41244;49.242;9.060;2023-08-30T08:54:42;4.85;;;4.30;;
55362;SDS011;41244;49.242;9.060;2023-08-30T08:57:08;8.35;;;5.05;;
55362;SDS011;41244;49.242;9.060;2023-08-30T08:59:34;5.90;;;5.40;;
55362;SDS011;41244;49.242;9.060;2023-08-30T09:02:01;7.03;;;5.60;;
55362;SDS011;41244;49.242;9.060;2023-08-30T09:04:28;7.30;;;5.25;;
55362;SDS011;41244;49.242;9.060;2023-08-30T09:06:56;8.00;;;5.20;;
55362;SDS011;41244;49.242;9.060;2023-08-30T09:09:24;6.88;;;5.72;;
55362;SDS011;41244;49.242;9.060;2023-08-30T09:11:50;6.25;;;5.75;;
55362;SDS011;41244;49.242;9.060;2023-08-30T09:14:16;6.60;;;5.40;;
55362;SDS011;41244;49.242;9.060;2023-08-30T09:16:42;7.53;;;5.50;;
55362;SDS011;41244;49.242;9.060;2023-08-30T09:19:08;6.45;;;5.40;;
55362;SDS011;41244;49.242;9.060;2023-08-30T09:21:35;5.82;;;5.25;;
55362;SDS011;41244;49.242;9.060;2023-08-30T09:24:02;6.15;;;5.55;;
55362;SDS011;41244;49.242;9.060;2023-08-30T09:26:30;5.47;;;4.63;;
55362;SDS011;41244;49.242;9.060;2023-08-30T09:29:01;7.45;;;6.20;;
55362;SDS011;41244;49.242;9.060;2023-08-30T09:31:34;6.57;;;5.97;;
55362;SDS011;41244;49.242;9.060;2023-08-30T09:34:01;7.10;;;5.68;;
55362;SDS011;41244;49.242;9.060;2023-08-30T09:36:34;5.45;;;4.95;;
55362;SDS011;41244;49.242;9.060;2023-08-30T09:39:12;6.10;;;5.40;;
55362;SDS011;41244;49.242;9.060;2023-08-30T09:41:43;6.38;;;5.40;;
55362;SDS011;41244;49.242;9.060;2023-08-30T09:44:11;5.43;;;4.60;;
55362;SDS011;41244;49.242;9.060;2023-08-30T09:46:53;7.07;;;5.38;;
55362;SDS011;41244;49.242;9.060;2023-08-30T09:49:21;6.95;;;5.90;;
55362;SDS011;41244;49.242;9.060;2023-08-30T09:51:49;7.75;;;5.78;;
55362;SDS011;41244;49.242;9.060;2023-08-30T09:54:20;5.88;;;5.25;;
55362;SDS011;41244;49.242;9.060;2023-08-30T09:56:51;7.13;;;6.18;;
55362;SDS011;41244;49.242;9.060;2023-08-30T09:59:21;7.55;;;5.70;;
55362;SDS011;41244;49.242;9.060;2023-08-30T10:01:47;5.50;;;5.00;;
55362;SDS011;41244;49.242;9.060;2023-08-30T10:04:13;6.18;;;5.57;;
55362;SDS011;41244;49.242;9.060;2023-08-30T10:06:40;6.97;;;5.32;;
55362;SDS011;41244;49.242;9.060;2023-08-30T10:09:07;11.45;;;10.10;;
55362;SDS011;41244;49.242;9.060;2023-08-30T10:11:37;6.20;;;5.60;;
55362;SDS011;41244;49.242;9.060;2023-08-30T10:14:06;6.30;;;5.70;;
55362;SDS011;41244;49.242;9.060;2023-08-30T10:16:46;5.57;;;5.03;;
55362;SDS011;41244;49.242;9.060;2023-08-30T10:19:16;6.07;;;5.53;;
55362;SDS011;41244;49.242;9.060;2023-08-30T10:21:57;6.97;;;5.65;;
55362;SDS011;41244;49.242;9.060;2023-08-30T10:24:29;6.57;;;5.88;;
55362;SDS011;41244;49.242;9.060;2023-08-30T10:27:06;5.40;;;5.00;;
55362;SDS011;41244;49.242;9.060;2023-08-30T10:29:33;5.47;;;4.90;;
55362;SDS011;41244;49.242;9.060;2023-08-30T10:32:03;5.03;;;4.55;;
55362;SDS011;41244;49.242;9.060;2023-08-30T10:34:36;4.85;;;4.20;;
55362;SDS011;41244;49.242;9.060;2023-08-30T10:37:03;4.00;;;3.50;;
55362;SDS011;41244;49.242;9.060;2023-08-30T10:39:33;4.20;;;3.80;;
55362;SDS011;41244;49.242;9.060;2023-08-30T10:42:00;5.78;;;3.83;;
55362;SDS011;41244;49.242;9.060;2023-08-30T10:44:35;4.80;;;4.30;;
55362;SDS011;41244;49.242;9.060;2023-08-30T10:47:30;7.05;;;4.32;;
55362;SDS011;41244;49.242;9.060;2023-08-30T10:50:05;5.20;;;4.55;;
55362;SDS011;41244;49.242;9.060;2023-08-30T10:52:33;9.23;;;4.40;;
55362;SDS011;41244;49.242;9.060;2023-08-30T10:57:32;4.15;;;3.75;;
55362;SDS011;41244;49.242;9.060;2023-08-30T11:02:43;8.75;;;3.83;;
55362;SDS011;41244;49.242;9.060;2023-08-30T11:05:20;6.13;;;3.90;;
55362;SDS011;41244;49.242;9.060;2023-08-30T11:07:48;4.47;;;3.80;;
55362;SDS011;41244;49.242;9.060;2023-08-30T11:10:15;4.65;;;3.90;;
55362;SDS011;41244;49.242;9.060;2023-08-30T11:12:42;4.13;;;3.72;;
55362;SDS011;41244;49.242;9.060;2023-08-30T11:15:10;6.57;;;3.95;;
55362;SDS011;41244;49.242;9.060;2023-08-30T11:17:38;3.95;;;3.60;;
55362;SDS011;41244;49.242;9.060;2023-08-30T11:20:08;3.95;;;3.65;;
55362;SDS011;41244;49.242;9.060;2023-08-30T11:22:39;6.63;;;3.85;;
55362;SDS011;41244;49.242;9.060;2023-08-30T11:25:07;5.05;;;3.90;;
55362;SDS011;41244;49.242;9.060;2023-08-30T11:27:34;4.47;;;3.40;;
55362;SDS011;41244;49.242;9.060;2023-08-30T11:30:03;3.53;;;3.20;;
55362;SDS011;41244;49.242;9.060;2023-08-30T11:32:32;3.47;;;3.17;;
55362;SDS011;41244;49.242;9.060;2023-08-30T11:35:02;3.67;;;3.17;;
55362;SDS011;41244;49.242;9.060;2023-08-30T11:37:29;3.75;;;3.30;;
55362;SDS011;41244;49.242;9.060;2023-08-30T11:39:56;3.67;;;3.17;;
55362;SDS011;41244;49.242;9.060;2023-08-30T11:42:22;5.28;;;3.30;;
55362;SDS011;41244;49.242;9.060;2023-08-30T11:44:49;4.57;;;3.47;;
55362;SDS011;41244;49.242;9.060;2023-08-30T11:47:23;4.05;;;3.60;;
55362;SDS011;41244;49.242;9.060;2023-08-30T11:49:50;3.40;;;3.10;;
55362;SDS011;41244;49.242;9.060;2023-08-30T11:52:18;6.05;;;3.55;;
55362;SDS011;41244;49.242;9.060;2023-08-30T11:54:48;4.07;;;3.50;;
55362;SDS011;41244;49.242;9.060;2023-08-30T11:57:14;5.63;;;4.75;;
55362;SDS011;41244;49.242;9.060;2023-08-30T11:59:40;4.07;;;3.67;;
55362;SDS011;41244;49.242;9.060;2023-08-30T12:02:09;4.22;;;3.70;;
55362;SDS011;41244;49.242;9.060;2023-08-30T12:04:41;3.63;;;3.33;;
55362;SDS011;41244;49.242;9.060;2023-08-30T12:07:08;6.13;;;3.85;;
55362;SDS011;41244;49.242;9.060;2023-08-30T12:09:35;3.45;;;3.15;;
55362;SDS011;41244;49.242;9.060;2023-08-30T12:12:22;5.82;;;3.47;;
55362;SDS011;41244;49.242;9.060;2023-08-30T12:14:54;4.00;;;3.60;;
55362;SDS011;41244;49.242;9.060;2023-08-30T12:17:21;3.83;;;3.53;;
55362;SDS011;41244;49.242;9.060;2023-08-30T12:19:54;4.20;;;3.45;;
55362;SDS011;41244;49.242;9.060;2023-08-30T12:22:23;4.97;;;3.35;;
55362;SDS011;41244;49.242;9.060;2023-08-30T12:24:49;3.30;;;3.00;;
55362;SDS011;41244;49.242;9.060;2023-08-30T12:27:15;3.65;;;3.17;;
55362;SDS011;41244;49.242;9.060;2023-08-30T12:29:41;4.30;;;3.35;;
55362;SDS011;41244;49.242;9.060;2023-08-30T12:32:07;4.00;;;3.40;;
55362;SDS011;41244;49.242;9.060;2023-08-30T12:34:34;3.70;;;3.10;;
55362;SDS011;41244;49.242;9.060;2023-08-30T12:37:00;4.45;;;3.28;;
55362;SDS011;41244;49.242;9.060;2023-08-30T12:39:27;4.47;;;3.40;;
55362;SDS011;41244;49.242;9.060;2023-08-30T12:41:53;3.22;;;2.95;;
55362;SDS011;41244;49.242;9.060;2023-08-30T12:44:19;3.38;;;2.78;;
55362;SDS011;41244;49.242;9.060;2023-08-30T12:46:44;6.30;;;2.75;;
55362;SDS011;41244;49.242;9.060;2023-08-30T12:49:10;3.22;;;2.92;;
55362;SDS011;41244;49.242;9.060;2023-08-30T12:51:36;3.00;;;2.70;;
55362;SDS011;41244;49.242;9.060;2023-08-30T12:54:02;4.60;;;3.13;;
55362;SDS011;41244;49.242;9.060;2023-08-30T12:56:28;3.20;;;2.90;;
55362;SDS011;41244;49.242;9.060;2023-08-30T12:58:53;8.02;;;3.10;;
55362;SDS011;41244;49.242;9.060;2023-08-30T13:01:19;3.20;;;2.92;;
55362;SDS011;41244;49.242;9.060;2023-08-30T13:03:45;4.20;;;3.10;;
55362;SDS011;41244;49.242;9.060;2023-08-30T13:06:11;3.58;;;2.67;;
55362;SDS011;41244;49.242;9.060;2023-08-30T13:08:36;3.30;;;3.00;;
55362;SDS011;41244;49.242;9.060;2023-08-30T13:11:02;4.35;;;2.83;;
55362;SDS011;41244;49.242;9.060;2023-08-30T13:13:28;3.63;;;2.85;;
55362;SDS011;41244;49.242;9.060;2023-08-30T13:15:54;3.13;;;2.83;;
55362;SDS011;41244;49.242;9.060;2023-08-30T13:18:19;3.20;;;2.90;;
55362;SDS011;41244;49.242;9.060;2023-08-30T13:20:46;2.83;;;2.63;;
55362;SDS011;41244;49.242;9.060;2023-08-30T13:23:12;3.33;;;2.97;;
55362;SDS011;41244;49.242;9.060;2023-08-30T13:25:38;4.32;;;2.92;;
55362;SDS011;41244;49.242;9.060;2023-08-30T13:28:05;4.15;;;3.10;;
55362;SDS011;41244;49.242;9.060;2023-08-30T13:30:31;3.22;;;2.75;;
55362;SDS011;41244;49.242;9.060;2023-08-30T13:32:56;3.20;;;2.90;;
55362;SDS011;41244;49.242;9.060;2023-08-30T13:35:22;3.25;;;2.90;;
55362;SDS011;41244;49.242;9.060;2023-08-30T13:37:48;3.63;;;3.13;;
55362;SDS011;41244;49.242;9.060;2023-08-30T13:40:15;4.70;;;2.83;;
55362;SDS011;41244;49.242;9.060;2023-08-30T13:42:41;3.30;;;2.90;;
55362;SDS011;41244;49.242;9.060;2023-08-30T13:45:07;5.00;;;3.08;;
55362;SDS011;41244;49.242;9.060;2023-08-30T13:47:34;3.30;;;2.97;;
55362;SDS011;41244;49.242;9.060;2023-08-30T13:50:00;3.60;;;2.90;;
55362;SDS011;41244;49.242;9.060;2023-08-30T13:52:26;4.35;;;3.38;;
55362;SDS011;41244;49.242;9.060;2023-08-30T13:54:54;3.00;;;2.75;;
55362;SDS011;41244;49.242;9.060;2023-08-30T13:57:20;4.18;;;2.92;;
55362;SDS011;41244;49.242;9.060;2023-08-30T13:59:45;4.60;;;2.90;;
55362;SDS011;41244;49.242;9.060;2023-08-30T14:02:11;5.57;;;2.80;;
55362;SDS011;41244;49.242;9.060;2023-08-30T14:04:37;3.35;;;3.05;;
55362;SDS011;41244;49.242;9.060;2023-08-30T14:07:03;3.80;;;3.00;;
55362;SDS011;41244;49.242;9.060;2023-08-30T14:09:29;3.88;;;2.97;;
55362;SDS011;41244;49.242;9.060;2023-08-30T14:11:55;3.33;;;3.03;;
55362;SDS011;41244;49.242;9.060;2023-08-30T14:14:21;3.75;;;2.88;;
55362;SDS011;41244;49.242;9.060;2023-08-30T14:16:47;3.72;;;3.10;;
55362;SDS011;41244;49.242;9.060;2023-08-30T14:19:14;6.00;;;3.25;;
55362;SDS011;41244;49.242;9.060;2023-08-30T14:21:41;3.00;;;2.80;;
55362;SDS011;41244;49.242;9.060;2023-08-30T14:24:06;4.03;;;3.40;;
55362;SDS011;41244;49.242;9.060;2023-08-30T14:26:32;7.15;;;3.80;;
55362;SDS011;41244;49.242;9.060;2023-08-30T14:28:58;3.30;;;3.00;;
55362;SDS011;41244;49.242;9.060;2023-08-30T14:31:24;6.65;;;3.28;;
55362;SDS011;41244;49.242;9.060;2023-08-30T14:33:54;4.50;;;2.85;;
55362;SDS011;41244;49.242;9.060;2023-08-30T14:36:23;3.20;;;2.67;;
55362;SDS011;41244;49.242;9.060;2023-08-30T14:38:48;4.25;;;2.90;;
55362;SDS011;41244;49.242;9.060;2023-08-30T14:41:14;3.20;;;2.90;;
55362;SDS011;41244;49.242;9.060;2023-08-30T14:43:42;3.58;;;3.00;;
55362;SDS011;41244;49.242;9.060;2023-08-30T14:46:08;3.88;;;3.10;;
55362;SDS011;41244;49.242;9.060;2023-08-30T14:48:34;4.13;;;2.80;;
55362;SDS011;41244;49.242;9.060;2023-08-30T14:51:00;3.67;;;2.95;;